createdAt,value
2024-03-14T00:00:12.668Z,10
2024-03-14T00:28:46.560Z,7
2024-03-14T00:57:22.142Z,5
2024-03-14T01:26:04.216Z,6
2024-03-14T01:54:49.173Z,3
2024-03-14T02:23:30.874Z,6
2024-03-14T02:52:08.341Z,6
2024-03-14T03:20:46.057Z,6
2024-03-14T03:49:27.785Z,4
2024-03-14T04:18:14.481Z,5
2024-03-14T04:46:45.811Z,13
2024-03-14T05:15:24.799Z,9
2024-03-14T05:44:01.394Z,21
2024-03-14T06:12:26.898Z,12
2024-03-14T06:40:56.778Z,14
2024-03-14T07:09:28.920Z,21
2024-03-14T07:38:02.730Z,25
2024-03-14T08:06:53.007Z,21
2024-03-14T08:35:35.027Z,8
2024-03-14T09:04:00.331Z,7
2024-03-14T09:32:37.957Z,7
2024-03-14T10:01:28.613Z,8
2024-03-14T10:30:08.128Z,5
2024-03-14T10:58:41.538Z,9
2024-03-14T11:27:24.083Z,6
2024-03-14T11:55:55.396Z,3
2024-03-14T12:24:20.445Z,3
2024-03-14T12:52:49.667Z,3
2024-03-14T13:21:33.060Z,4
2024-03-14T13:50:09.268Z,4
2024-03-14T14:18:39.738Z,3
2024-03-14T14:47:09.965Z,1
2024-03-14T15:15:31.488Z,3
2024-03-14T15:43:54.842Z,5
2024-03-14T16:12:16.797Z,3
2024-03-14T16:40:36.771Z,12
2024-03-14T17:09:06.017Z,4
2024-03-14T17:37:35.369Z,7
2024-03-14T18:06:00.721Z,20
2024-03-14T18:34:32.250Z,14
2024-03-14T19:02:51.550Z,10
2024-03-14T19:31:23.674Z,14
2024-03-14T20:28:30.086Z,32
2024-03-14T20:56:58.468Z,23
2024-03-14T21:25:31.927Z,26
2024-03-14T22:22:22.988Z,15
2024-03-14T22:50:47.398Z,22
2024-03-14T23:19:22.307Z,21
2024-03-14T23:48:06.879Z,11
